createdAt,value
2023-05-04T00:04:25.098Z,9.40
2023-05-04T00:09:27.911Z,8.60
2023-05-04T00:14:30.654Z,8.55
2023-05-04T00:19:35.169Z,9.48
2023-05-04T00:24:38.669Z,13.38
2023-05-04T00:29:42.487Z,10.63
2023-05-04T00:34:46.581Z,11.25
2023-05-04T00:39:49.362Z,8.27
2023-05-04T00:44:52.181Z,7.15
2023-05-04T00:49:56.589Z,11.88
2023-05-04T00:55:03.227Z,11.32
2023-05-04T01:00:08.494Z,11.05
2023-05-04T01:05:13.450Z,9.90
2023-05-04T01:10:21.010Z,7.28
2023-05-04T01:15:24.273Z,9.47
2023-05-04T01:20:28.512Z,12.48
2023-05-04T01:25:36.888Z,11.57
2023-05-04T01:30:44.674Z,8.32
2023-05-04T01:35:47.963Z,7.97
2023-05-04T01:40:52.125Z,8.32
2023-05-04T01:45:54.961Z,7.25
2023-05-04T01:50:57.868Z,14.02
2023-05-04T01:56:01.970Z,10.05
2023-05-04T02:01:05.119Z,8.20
2023-05-04T02:06:08.472Z,10.20
2023-05-04T02:11:14.615Z,7.38
2023-05-04T02:16:17.521Z,5.43
2023-05-04T02:21:20.688Z,7.68
2023-05-04T02:26:25.036Z,8.10
2023-05-04T02:31:27.834Z,7.05
2023-05-04T02:36:30.725Z,8.63
2023-05-04T02:41:34.923Z,7.55
2023-05-04T02:46:37.664Z,9.25
2023-05-04T02:51:40.498Z,9.68
2023-05-04T02:56:45.157Z,8.30
2023-05-04T03:01:48.570Z,7.72
2023-05-04T03:06:51.464Z,11.32
2023-05-04T03:11:56.174Z,10.18
2023-05-04T03:16:59.425Z,10.40
2023-05-04T03:22:02.624Z,8.90
2023-05-04T03:27:07.491Z,8.35
2023-05-04T03:32:13.219Z,7.28
2023-05-04T03:37:16.977Z,9.73
2023-05-04T03:42:21.314Z,9.43
2023-05-04T03:47:24.202Z,13.02
2023-05-04T03:52:27.112Z,12.20
2023-05-04T03:57:31.572Z,8.77
2023-05-04T04:02:37.358Z,8.65
2023-05-04T04:07:41.773Z,11.75
2023-05-04T04:12:48.261Z,12.55
2023-05-04T04:17:51.096Z,10.35
2023-05-04T04:22:53.973Z,10.45
2023-05-04T04:27:58.613Z,8.15
2023-05-04T04:33:02.234Z,10.52
2023-05-04T04:38:22.554Z,9.57
2023-05-04T04:43:26.843Z,12.23
2023-05-04T04:48:29.784Z,11.43
2023-05-04T04:53:33.648Z,8.82
2023-05-04T04:58:37.909Z,11.05
2023-05-04T05:03:40.691Z,9.10
2023-05-04T05:08:43.910Z,8.85
2023-05-04T05:13:48.171Z,8.32
2023-05-04T05:18:51.041Z,8.32
2023-05-04T05:23:53.770Z,12.80
2023-05-04T05:28:57.950Z,15.80
2023-05-04T05:34:00.894Z,11.80
2023-05-04T05:39:03.690Z,9.63
2023-05-04T05:44:08.277Z,10.23
2023-05-04T05:49:11.471Z,8.60
2023-05-04T05:54:14.276Z,10.48
2023-05-04T05:59:18.418Z,13.32
2023-05-04T06:04:21.166Z,8.40
2023-05-04T06:09:23.997Z,9.77
2023-05-04T06:14:28.107Z,8.52
2023-05-04T06:19:31.618Z,8.95
2023-05-04T06:24:34.409Z,11.43
2023-05-04T06:29:40.695Z,6.90
2023-05-04T06:34:45.424Z,15.38
2023-05-04T06:39:48.573Z,11.95
2023-05-04T06:44:53.238Z,8.20
2023-05-04T06:49:56.071Z,7.70
2023-05-04T06:55:00.029Z,11.82
2023-05-04T07:00:05.322Z,8.07
2023-05-04T07:05:09.035Z,8.60
2023-05-04T07:10:12.165Z,9.80
2023-05-04T07:15:16.717Z,6.65
2023-05-04T07:20:22.863Z,10.05
2023-05-04T07:25:28.063Z,6.57
2023-05-04T07:30:32.344Z,6.20
2023-05-04T07:35:35.124Z,7.65
2023-05-04T07:40:37.889Z,7.95
2023-05-04T07:45:42.282Z,6.38
2023-05-04T07:50:45.242Z,10.57
2023-05-04T07:55:48.295Z,9.02
2023-05-04T08:00:52.601Z,13.68
2023-05-04T08:05:55.737Z,8.68
2023-05-04T08:11:11.628Z,8.52
2023-05-04T08:16:17.238Z,11.30
2023-05-04T08:21:20.950Z,9.27
2023-05-04T08:26:24.416Z,6.55
2023-05-04T08:31:28.645Z,7.45
2023-05-04T08:36:31.759Z,7.28
2023-05-04T08:41:34.692Z,8.80
2023-05-04T08:46:38.966Z,7.45
2023-05-04T08:51:43.679Z,6.40
2023-05-04T08:56:47.593Z,11.18
2023-05-04T09:01:57.040Z,11.10
2023-05-04T09:06:59.902Z,9.10
2023-05-04T09:12:02.724Z,6.47
2023-05-04T09:17:16.355Z,6.47
2023-05-04T09:22:20.378Z,5.82
2023-05-04T09:27:23.398Z,7.28
2023-05-04T09:32:28.939Z,8.02
2023-05-04T09:37:31.783Z,8.80
2023-05-04T09:42:34.521Z,6.25
2023-05-04T09:47:39.949Z,6.03
2023-05-04T09:52:44.009Z,8.77
2023-05-04T09:57:48.328Z,5.28
2023-05-04T10:02:53.254Z,6.55
2023-05-04T10:08:00.101Z,5.88
2023-05-04T10:13:03.235Z,5.03
2023-05-04T10:18:19.537Z,8.90
2023-05-04T10:23:49.289Z,8.20
2023-05-04T10:29:02.206Z,5.28
2023-05-04T10:34:06.685Z,6.18
2023-05-04T10:39:19.723Z,6.15
2023-05-04T10:44:22.471Z,5.10
2023-05-04T10:49:26.868Z,6.70
2023-05-04T10:54:29.749Z,6.65
2023-05-04T10:59:34.245Z,6.95
2023-05-04T11:04:40.322Z,7.00
2023-05-04T11:09:44.386Z,4.55
2023-05-04T11:14:47.144Z,5.88
2023-05-04T11:19:53.002Z,5.45
2023-05-04T11:24:56.338Z,3.97
2023-05-04T11:30:00.366Z,6.43
2023-05-04T11:35:06.391Z,3.22
2023-05-04T11:40:11.825Z,3.78
2023-05-04T11:45:16.986Z,5.68
2023-05-04T11:50:22.221Z,7.93
2023-05-04T11:55:30.481Z,5.05
2023-05-04T12:00:41.561Z,4.80
2023-05-04T12:05:49.329Z,6.82
2023-05-04T12:10:52.108Z,7.03
2023-05-04T12:15:54.963Z,7.10
2023-05-04T12:21:08.898Z,7.38
2023-05-04T12:26:13.251Z,8.90
2023-05-04T12:31:16.148Z,6.35
2023-05-04T12:36:20.553Z,7.85
2023-05-04T12:41:23.372Z,4.45
2023-05-04T12:46:26.168Z,8.07
2023-05-04T12:51:32.064Z,5.70
2023-05-04T12:56:35.063Z,7.05
2023-05-04T13:01:37.891Z,3.80
2023-05-04T13:06:43.841Z,6.28
2023-05-04T13:11:47.547Z,4.10
2023-05-04T13:16:51.183Z,5.63
2023-05-04T13:21:55.923Z,7.15
2023-05-04T13:26:59.382Z,6.85
2023-05-04T13:32:02.746Z,3.85
2023-05-04T13:37:07.288Z,2.95
2023-05-04T13:42:10.123Z,3.30
2023-05-04T13:47:13.684Z,3.78
2023-05-04T13:52:17.879Z,4.75
2023-05-04T13:57:20.581Z,5.18
2023-05-04T14:02:23.601Z,5.15
2023-05-04T14:07:28.006Z,4.75
2023-05-04T14:12:31.829Z,3.72
2023-05-04T14:17:34.732Z,5.30
2023-05-04T14:22:41.085Z,5.22
2023-05-04T14:27:44.291Z,5.35
2023-05-04T14:32:47.263Z,5.38
2023-05-04T14:37:51.460Z,6.18
2023-05-04T14:42:54.202Z,5.82
2023-05-04T14:47:57.044Z,5.65
2023-05-04T14:53:01.180Z,5.70
2023-05-04T14:58:03.909Z,5.97
2023-05-04T15:03:07.257Z,3.28
2023-05-04T15:08:11.438Z,6.28
2023-05-04T15:13:15.838Z,5.50
2023-05-04T15:18:18.849Z,7.43
2023-05-04T15:23:22.959Z,7.35
2023-05-04T15:28:26.152Z,4.00
2023-05-04T15:33:28.915Z,4.75
2023-05-04T15:38:33.086Z,3.70
2023-05-04T15:43:36.142Z,4.03
2023-05-04T15:48:38.997Z,6.35
2023-05-04T15:53:43.196Z,4.53
2023-05-04T15:58:46.260Z,5.57
2023-05-04T16:03:49.134Z,5.00
2023-05-04T16:08:53.366Z,7.07
2023-05-04T16:13:56.699Z,8.50
2023-05-04T16:18:59.577Z,9.07
2023-05-04T16:24:03.702Z,8.57
2023-05-04T16:29:06.783Z,7.00
2023-05-04T16:34:09.564Z,9.95
2023-05-04T16:39:14.642Z,8.70
2023-05-04T16:44:17.584Z,9.50
2023-05-04T16:49:21.392Z,11.68
2023-05-04T16:54:26.064Z,13.98
2023-05-04T16:59:29.311Z,8.60
2023-05-04T17:04:32.334Z,11.10
2023-05-04T17:09:36.787Z,13.50
2023-05-04T17:14:39.582Z,13.60
2023-05-04T17:19:42.436Z,11.23
2023-05-04T17:24:46.613Z,9.93
2023-05-04T17:29:49.456Z,8.70
2023-05-04T17:34:52.297Z,11.02
2023-05-04T17:39:56.999Z,10.48
2023-05-04T17:44:59.912Z,11.15
2023-05-04T17:50:04.610Z,10.00
2023-05-04T17:55:09.871Z,11.43
2023-05-04T18:00:14.333Z,12.18
2023-05-04T18:05:17.524Z,11.10
2023-05-04T18:10:21.950Z,10.15
2023-05-04T18:15:25.099Z,10.13
2023-05-04T18:20:28.574Z,12.18
2023-05-04T18:26:00.386Z,12.75
2023-05-04T18:31:33.406Z,13.00
2023-05-04T18:36:40.754Z,13.32
2023-05-04T18:41:46.156Z,12.45
2023-05-04T18:46:52.762Z,14.02
2023-05-04T18:52:06.291Z,12.05
2023-05-04T18:57:14.514Z,13.63
2023-05-04T19:02:17.560Z,11.10
2023-05-04T19:07:20.477Z,10.93
2023-05-04T19:12:24.939Z,8.27
2023-05-04T19:17:28.062Z,12.95
2023-05-04T19:22:31.938Z,7.78
2023-05-04T19:27:36.371Z,7.18
2023-05-04T19:32:39.589Z,10.57
2023-05-04T19:37:42.770Z,9.43
2023-05-04T19:43:00.653Z,9.30
2023-05-04T19:48:06.577Z,7.93
2023-05-04T19:53:09.530Z,9.82
2023-05-04T19:58:16.464Z,8.65
2023-05-04T20:03:22.534Z,11.52
2023-05-04T20:08:26.844Z,11.00
2023-05-04T20:13:31.172Z,12.38
2023-05-04T20:18:34.205Z,14.38
2023-05-04T20:23:37.268Z,10.85
2023-05-04T20:28:41.463Z,10.75
2023-05-04T20:33:44.443Z,8.70
2023-05-04T20:38:50.480Z,11.10
2023-05-04T20:43:54.653Z,11.90
2023-05-04T20:49:02.800Z,10.43
2023-05-04T20:54:08.594Z,13.20
2023-05-04T20:59:12.773Z,10.68
2023-05-04T21:04:17.549Z,9.85
2023-05-04T21:09:21.554Z,9.95
2023-05-04T21:14:25.792Z,9.38
2023-05-04T21:19:29.331Z,10.60
2023-05-04T21:24:33.125Z,8.95
2023-05-04T21:29:38.309Z,8.05
2023-05-04T21:34:41.142Z,9.05
2023-05-04T21:39:43.912Z,8.85
2023-05-04T21:44:48.012Z,7.95
2023-05-04T21:49:51.560Z,6.30
2023-05-04T21:54:54.284Z,10.05
2023-05-04T21:59:58.469Z,11.38
2023-05-04T22:05:01.228Z,7.53
2023-05-04T22:10:04.303Z,6.15
2023-05-04T22:15:10.602Z,8.27
2023-05-04T22:20:14.230Z,7.88
2023-05-04T22:25:18.422Z,9.38
2023-05-04T22:30:23.025Z,4.65
2023-05-04T22:35:25.778Z,7.55
2023-05-04T22:40:28.527Z,6.82
2023-05-04T22:45:35.658Z,8.55
2023-05-04T22:50:39.034Z,8.15
2023-05-04T22:55:42.142Z,8.40
2023-05-04T23:00:47.881Z,5.68
2023-05-04T23:05:50.623Z,6.68
2023-05-04T23:10:53.479Z,8.93
2023-05-04T23:15:57.755Z,8.18
2023-05-04T23:21:00.550Z,6.72
2023-05-04T23:26:03.262Z,4.68
2023-05-04T23:31:07.494Z,11.35
2023-05-04T23:36:10.573Z,6.43
2023-05-04T23:41:13.357Z,7.43
2023-05-04T23:46:17.552Z,6.95
2023-05-04T23:51:21.200Z,4.65
2023-05-04T23:56:24.036Z,5.47
